createdAt,value
2023-05-10T00:00:36.624Z,100422.16
2023-05-10T00:05:39.416Z,100424.34
2023-05-10T00:10:43.665Z,100418.31
2023-05-10T00:15:46.380Z,100412.63
2023-05-10T00:20:49.785Z,100416.72
2023-05-10T00:25:54.069Z,100413.34
2023-05-10T00:30:56.891Z,100420.66
2023-05-10T00:35:59.700Z,100405.25
2023-05-10T00:41:05.106Z,100401.94
2023-05-10T00:46:10.688Z,100397.25
2023-05-10T00:51:15.277Z,100398.56
2023-05-10T00:56:21.442Z,100393.25
2023-05-10T01:01:24.290Z,100389.94
2023-05-10T01:06:28.716Z,100376.84
2023-05-10T01:11:32.925Z,100384.22
2023-05-10T01:16:42.349Z,100388.41
2023-05-10T01:21:55.205Z,100381.75
2023-05-10T01:27:27.283Z,100382.47
2023-05-10T01:32:37.928Z,100386.16
2023-05-10T01:37:46.390Z,100387.13
2023-05-10T01:42:53.669Z,100381.78
2023-05-10T01:48:06.470Z,100379.53
2023-05-10T01:53:12.135Z,100376.22
2023-05-10T01:58:17.431Z,100378.97
2023-05-10T02:03:24.182Z,100365.72
2023-05-10T02:08:28.307Z,100367.31
2023-05-10T02:13:34.129Z,100371.41
2023-05-10T02:18:38.636Z,100370.97
2023-05-10T02:23:42.125Z,100368.19
2023-05-10T02:28:45.928Z,100372.91
2023-05-10T02:33:51.001Z,100371.97
2023-05-10T02:38:55.683Z,100368.41
2023-05-10T02:44:03.613Z,100363.63
2023-05-10T02:49:07.844Z,100365.03
2023-05-10T02:54:14.556Z,100366.84
2023-05-10T02:59:17.324Z,100356.91
2023-05-10T03:04:21.581Z,100358.25
2023-05-10T03:09:25.743Z,100355.28
2023-05-10T03:14:44.293Z,100346.97
2023-05-10T03:19:55.272Z,100351.13
2023-05-10T03:25:00.486Z,100357.63
2023-05-10T03:30:09.465Z,100350.13
2023-05-10T03:35:15.252Z,100356.03
2023-05-10T03:40:18.550Z,100351.59
2023-05-10T03:45:21.771Z,100350.63
2023-05-10T03:50:27.142Z,100354.50
2023-05-10T03:55:30.498Z,100352.81
2023-05-10T04:00:33.860Z,100353.44
2023-05-10T04:05:38.741Z,100357.25
2023-05-10T04:10:41.630Z,100356.84
2023-05-10T04:15:44.711Z,100353.06
2023-05-10T04:20:48.798Z,100354.06
2023-05-10T04:25:52.008Z,100347.41
2023-05-10T04:30:54.915Z,100356.75
2023-05-10T04:36:00.974Z,100354.06
2023-05-10T04:41:07.953Z,100346.16
2023-05-10T04:46:10.834Z,100341.78
2023-05-10T04:51:15.036Z,100344.53
2023-05-10T04:56:18.049Z,100347.59
2023-05-10T05:01:20.850Z,100349.31
2023-05-10T05:06:25.892Z,100352.75
2023-05-10T05:11:28.612Z,100355.72
2023-05-10T05:16:33.049Z,100346.41
2023-05-10T05:21:37.201Z,100348.06
2023-05-10T05:26:39.938Z,100348.88
2023-05-10T05:31:42.681Z,100349.84
2023-05-10T05:36:47.125Z,100354.88
2023-05-10T05:41:49.908Z,100347.03
2023-05-10T05:46:52.701Z,100347.59
2023-05-10T05:52:01.057Z,100352.28
2023-05-10T05:57:03.859Z,100358.75
2023-05-10T06:02:07.381Z,100355.69
2023-05-10T06:07:11.535Z,100361.97
2023-05-10T06:12:14.331Z,100356.94
2023-05-10T06:17:17.305Z,100354.81
2023-05-10T06:22:23.540Z,100368.47
2023-05-10T06:27:26.893Z,100379.06
2023-05-10T06:32:29.790Z,100379.59
2023-05-10T06:37:34.178Z,100371.69
2023-05-10T06:42:36.939Z,100368.63
2023-05-10T06:47:39.910Z,100374.38
2023-05-10T06:52:44.516Z,100380.50
2023-05-10T06:57:47.228Z,100385.00
2023-05-10T07:02:50.086Z,100382.28
2023-05-10T07:07:54.260Z,100374.47
2023-05-10T07:12:57.146Z,100373.81
2023-05-10T07:18:00.175Z,100376.16
2023-05-10T07:23:04.491Z,100380.69
2023-05-10T07:28:07.312Z,100386.81
2023-05-10T07:33:10.952Z,100388.38
2023-05-10T07:38:16.249Z,100394.00
2023-05-10T07:43:19.135Z,100398.53
2023-05-10T07:48:21.938Z,100385.81
2023-05-10T07:53:27.103Z,100383.03
2023-05-10T07:58:30.048Z,100394.22
2023-05-10T08:03:32.854Z,100398.75
2023-05-10T08:08:37.032Z,100402.31
2023-05-10T08:13:39.927Z,100409.88
2023-05-10T08:18:42.818Z,100423.47
2023-05-10T08:23:47.018Z,100427.28
2023-05-10T08:28:49.864Z,100410.75
2023-05-10T08:33:53.590Z,100421.63
2023-05-10T08:38:57.824Z,100420.31
2023-05-10T08:44:02.491Z,100423.00
2023-05-10T08:49:06.609Z,100424.41
2023-05-10T08:54:11.433Z,100433.50
2023-05-10T08:59:15.153Z,100442.69
2023-05-10T09:04:18.668Z,100444.53
2023-05-10T09:09:23.750Z,100457.03
2023-05-10T09:14:27.047Z,100464.59
2023-05-10T09:19:30.177Z,100466.59
2023-05-10T09:24:34.333Z,100468.03
2023-05-10T09:29:44.831Z,100473.84
2023-05-10T09:34:52.002Z,100491.09
2023-05-10T09:45:02.880Z,100502.31
2023-05-10T09:50:06.631Z,100514.75
2023-05-10T09:55:11.616Z,100508.50
2023-05-10T10:00:21.041Z,100521.50
2023-05-10T10:05:30.383Z,100530.13
2023-05-10T10:10:35.824Z,100540.72
2023-05-10T10:15:39.058Z,100543.31
2023-05-10T10:20:42.360Z,100549.47
2023-05-10T10:25:49.285Z,100543.25
2023-05-10T10:30:56.295Z,100552.03
2023-05-10T10:36:02.148Z,100550.66
2023-05-10T10:41:11.433Z,100558.22
2023-05-10T10:46:15.555Z,100554.09
2023-05-10T10:51:18.665Z,100571.44
2023-05-10T10:56:25.232Z,100571.06
2023-05-10T11:01:35.282Z,100573.09
2023-05-10T11:06:41.480Z,100567.78
2023-05-10T11:11:56.120Z,100578.03
2023-05-10T11:16:59.309Z,100582.47
2023-05-10T11:22:15.536Z,100584.94
2023-05-10T11:27:20.642Z,100597.41
2023-05-10T11:32:24.108Z,100598.91
2023-05-10T11:37:33.276Z,100590.63
2023-05-10T11:42:39.097Z,100606.34
2023-05-10T11:47:44.238Z,100611.00
2023-05-10T11:52:47.399Z,100609.53
2023-05-10T11:57:54.150Z,100618.31
2023-05-10T12:02:57.173Z,100612.97
2023-05-10T12:08:13.388Z,100617.47
2023-05-10T12:13:17.683Z,100628.66
2023-05-10T12:18:25.877Z,100624.75
2023-05-10T12:23:28.752Z,100632.56
2023-05-10T12:28:34.328Z,100635.97
2023-05-10T12:33:42.684Z,100637.25
2023-05-10T12:38:49.034Z,100643.16
2023-05-10T12:43:53.613Z,100633.59
2023-05-10T12:49:08.016Z,100633.75
2023-05-10T12:54:12.357Z,100643.66
2023-05-10T12:59:16.583Z,100643.22
2023-05-10T13:04:19.504Z,100644.91
2023-05-10T13:09:22.533Z,100646.78
2023-05-10T13:14:26.961Z,100642.19
2023-05-10T13:19:29.881Z,100648.94
2023-05-10T13:24:32.848Z,100654.59
2023-05-10T13:29:37.489Z,100657.59
2023-05-10T13:34:43.361Z,100652.03
2023-05-10T13:39:46.380Z,100651.59
2023-05-10T13:44:50.774Z,100664.81
2023-05-10T13:49:53.780Z,100662.63
2023-05-10T13:54:56.997Z,100650.34
2023-05-10T14:00:01.448Z,100654.34
2023-05-10T14:05:11.221Z,100654.28
2023-05-10T14:10:14.103Z,100644.75
2023-05-10T14:15:18.655Z,100648.78
2023-05-10T14:20:21.638Z,100649.19
2023-05-10T14:25:25.306Z,100655.59
2023-05-10T14:30:29.532Z,100656.25
2023-05-10T14:35:32.990Z,100655.34
2023-05-10T14:40:35.866Z,100653.69
2023-05-10T14:45:40.035Z,100653.53
2023-05-10T14:50:42.877Z,100651.81
2023-05-10T14:55:45.624Z,100656.19
2023-05-10T15:00:49.744Z,100663.69
2023-05-10T15:05:54.030Z,100664.34
2023-05-10T15:10:57.290Z,100667.97
2023-05-10T15:16:02.048Z,100662.50
2023-05-10T15:21:04.948Z,100667.72
2023-05-10T15:26:07.841Z,100667.09
2023-05-10T15:31:12.211Z,100675.28
2023-05-10T15:36:15.159Z,100675.84
2023-05-10T15:41:19.134Z,100678.09
2023-05-10T15:46:23.871Z,100686.16
2023-05-10T15:51:26.902Z,100700.00
2023-05-10T15:56:29.815Z,100705.94
2023-05-10T16:01:34.086Z,100710.13
2023-05-10T16:06:38.204Z,100717.59
2023-05-10T16:11:42.099Z,100714.34
2023-05-10T16:16:47.629Z,100719.44
2023-05-10T16:21:51.273Z,100721.28
2023-05-10T16:26:54.476Z,100723.44
2023-05-10T16:31:58.660Z,100729.03
2023-05-10T16:37:01.417Z,100738.59
2023-05-10T16:42:04.396Z,100742.09
2023-05-10T16:47:08.747Z,100745.59
2023-05-10T16:52:11.662Z,100750.81
2023-05-10T16:57:14.605Z,100746.84
2023-05-10T17:02:18.809Z,100751.84
2023-05-10T17:07:26.132Z,100753.72
2023-05-10T17:12:29.276Z,100765.28
2023-05-10T17:17:34.299Z,100765.00
2023-05-10T17:22:37.217Z,100781.84
2023-05-10T17:27:40.450Z,100788.31
2023-05-10T17:32:44.746Z,100795.47
2023-05-10T17:37:47.749Z,100805.56
2023-05-10T17:42:50.635Z,100808.88
2023-05-10T17:47:55.011Z,100815.06
2023-05-10T17:52:57.988Z,100830.78
2023-05-10T17:58:00.998Z,100834.75
2023-05-10T18:03:06.317Z,100838.84
2023-05-10T18:08:09.762Z,100846.94
2023-05-10T18:13:12.774Z,100856.56
2023-05-10T18:18:17.648Z,100857.63
2023-05-10T18:23:20.944Z,100867.28
2023-05-10T18:28:24.437Z,100871.28
2023-05-10T18:33:28.625Z,100875.50
2023-05-10T18:38:31.808Z,100885.50
2023-05-10T18:43:34.870Z,100879.47
2023-05-10T18:48:39.264Z,100888.06
2023-05-10T18:53:42.053Z,100888.06
2023-05-10T18:58:45.504Z,100894.00
2023-05-10T19:03:49.764Z,100900.03
2023-05-10T19:08:52.675Z,100908.91
2023-05-10T19:13:55.576Z,100906.91
2023-05-10T19:19:01.214Z,100914.88
2023-05-10T19:24:04.518Z,100924.59
2023-05-10T19:29:07.718Z,100927.00
2023-05-10T19:34:11.935Z,100923.22
2023-05-10T19:39:14.822Z,100932.97
2023-05-10T19:44:20.581Z,100941.06
2023-05-10T19:49:26.481Z,100938.75
2023-05-10T19:54:29.945Z,100955.13
2023-05-10T19:59:32.760Z,100955.28
2023-05-10T20:04:37.119Z,100956.34
2023-05-10T20:09:39.992Z,100958.53
2023-05-10T20:14:42.744Z,100958.78
2023-05-10T20:19:46.925Z,100957.09
2023-05-10T20:24:49.738Z,100956.91
2023-05-10T20:29:53.159Z,100957.66
2023-05-10T20:34:57.410Z,100960.66
2023-05-10T20:40:00.235Z,100963.00
2023-05-10T20:45:03.310Z,100969.69
2023-05-10T20:50:08.708Z,100972.59
2023-05-10T20:55:11.504Z,100968.13
2023-05-10T21:00:15.597Z,100969.84
2023-05-10T21:05:20.008Z,100968.25
2023-05-10T21:10:22.831Z,100958.78
2023-05-10T21:15:25.930Z,100971.47
2023-05-10T21:20:32.384Z,100961.81
2023-05-10T21:25:35.168Z,100966.25
2023-05-10T21:30:37.880Z,100966.72
2023-05-10T21:35:43.000Z,100968.97
2023-05-10T21:40:46.163Z,100980.75
2023-05-10T21:45:49.007Z,100971.41
2023-05-10T21:50:53.260Z,100977.22
2023-05-10T21:55:56.283Z,100983.41
2023-05-10T22:00:59.134Z,100985.34
2023-05-10T22:06:03.328Z,100979.16
2023-05-10T22:11:06.192Z,100992.69
2023-05-10T22:16:08.951Z,100988.03
2023-05-10T22:21:13.083Z,100989.34
2023-05-10T22:26:15.885Z,100986.81
2023-05-10T22:31:18.741Z,100997.09
2023-05-10T22:36:22.960Z,100998.53
2023-05-10T22:41:26.293Z,101003.97
2023-05-10T22:46:29.598Z,101004.22
2023-05-10T22:51:33.857Z,101010.47
2023-05-10T22:56:36.650Z,101008.44
2023-05-10T23:01:39.497Z,101017.34
2023-05-10T23:06:43.611Z,101012.16
2023-05-10T23:11:46.415Z,101019.09
2023-05-10T23:16:49.115Z,101020.81
2023-05-10T23:21:53.200Z,101023.34
2023-05-10T23:26:56.019Z,101028.03
2023-05-10T23:31:58.796Z,101027.03
2023-05-10T23:37:03.130Z,101024.78
2023-05-10T23:42:06.417Z,101023.34
2023-05-10T23:47:09.326Z,101028.53
2023-05-10T23:52:13.982Z,101036.69
2023-05-10T23:57:16.775Z,101024.63
